sensor_id;sensor_type;location;lat;lon;timestamp;pressure;altitude;pressure_sealevel;temperature;humidity
60087;BME280;45960;53.630;55.972;2023-05-11T00:00:47;100443.66;;;5.33;59.46
60087;BME280;45960;53.630;55.972;2023-05-11T00:01:48;100454.25;;;5.33;59.38
60087;BME280;45960;53.630;55.972;2023-05-11T00:02:49;100448.97;;;5.33;59.65
60087;BME280;45960;53.630;55.972;2023-05-11T00:03:50;100443.69;;;5.31;59.46
60087;BME280;45960;53.630;55.972;2023-05-11T00:04:51;100456.81;;;5.34;59.35
60087;BME280;45960;53.630;55.972;2023-05-11T00:05:53;100447.22;;;5.32;59.53
60087;BME280;45960;53.630;55.972;2023-05-11T00:06:54;100443.78;;;5.30;59.20
60087;BME280;45960;53.630;55.972;2023-05-11T00:07:56;100447.47;;;5.26;59.32
60087;BME280;45960;53.630;55.972;2023-05-11T00:08:57;100449.22;;;5.27;59.40
60087;BME280;45960;53.630;55.972;2023-05-11T00:09:58;100445.75;;;5.25;59.34
60087;BME280;45960;53.630;55.972;2023-05-11T00:10:59;100445.75;;;5.25;59.30
60087;BME280;45960;53.630;55.972;2023-05-11T00:12:00;100433.78;;;5.14;59.28
60087;BME280;45960;53.630;55.972;2023-05-11T00:13:02;100449.44;;;5.21;59.34
60087;BME280;45960;53.630;55.972;2023-05-11T00:14:03;100442.41;;;5.20;59.45
60087;BME280;45960;53.630;55.972;2023-05-11T00:15:05;100444.13;;;5.21;59.56
60087;BME280;45960;53.630;55.972;2023-05-11T00:16:06;100446.88;;;5.19;59.54
60087;BME280;45960;53.630;55.972;2023-05-11T00:17:07;100444.25;;;5.18;59.74
60087;BME280;45960;53.630;55.972;2023-05-11T00:18:09;100447.88;;;5.15;59.66
60087;BME280;45960;53.630;55.972;2023-05-11T00:19:10;100454.97;;;5.14;59.70
60087;BME280;45960;53.630;55.972;2023-05-11T00:20:11;100440.94;;;5.12;59.96
60087;BME280;45960;53.630;55.972;2023-05-11T00:21:12;100455.91;;;5.13;59.64
60087;BME280;45960;53.630;55.972;2023-05-11T00:22:13;100457.63;;;5.14;59.60
60087;BME280;45960;53.630;55.972;2023-05-11T00:23:14;100452.53;;;5.10;59.67
60087;BME280;45960;53.630;55.972;2023-05-11T00:24:15;100455.22;;;5.08;59.42
60087;BME280;45960;53.630;55.972;2023-05-11T00:25:16;100462.25;;;5.09;59.49
60087;BME280;45960;53.630;55.972;2023-05-11T00:26:17;100457.94;;;5.07;59.49
60087;BME280;45960;53.630;55.972;2023-05-11T00:27:18;100459.72;;;5.06;59.51
60087;BME280;45960;53.630;55.972;2023-05-11T00:28:20;100459.03;;;5.01;59.62
60087;BME280;45960;53.630;55.972;2023-05-11T00:29:24;100461.63;;;5.03;59.55
60087;BME280;45960;53.630;55.972;2023-05-11T00:30:25;100456.47;;;5.00;59.70
60087;BME280;45960;53.630;55.972;2023-05-11T00:31:26;100463.44;;;5.02;59.62
60087;BME280;45960;53.630;55.972;2023-05-11T00:32:27;100465.22;;;5.02;59.47
60087;BME280;45960;53.630;55.972;2023-05-11T00:33:28;100467.75;;;5.05;59.64
60087;BME280;45960;53.630;55.972;2023-05-11T00:34:29;100472.22;;;5.03;59.75
60087;BME280;45960;53.630;55.972;2023-05-11T00:35:31;100466.94;;;5.03;59.67
60087;BME280;45960;53.630;55.972;2023-05-11T00:36:33;100471.38;;;5.02;59.80
60087;BME280;45960;53.630;55.972;2023-05-11T00:37:34;100463.69;;;4.96;59.75
60087;BME280;45960;53.630;55.972;2023-05-11T00:38:35;100475.94;;;4.99;59.75
60087;BME280;45960;53.630;55.972;2023-05-11T00:39:40;100472.28;;;5.01;59.94
60087;BME280;45960;53.630;55.972;2023-05-11T00:40:41;100475.94;;;4.99;59.79
60087;BME280;45960;53.630;55.972;2023-05-11T00:41:42;100482.94;;;5.00;59.87
60087;BME280;45960;53.630;55.972;2023-05-11T00:42:44;100479.44;;;4.99;59.95
60087;BME280;45960;53.630;55.972;2023-05-11T00:43:45;100468.28;;;4.91;60.08
60087;BME280;45960;53.630;55.972;2023-05-11T00:44:46;100482.09;;;4.99;59.99
60087;BME280;45960;53.630;55.972;2023-05-11T00:45:47;100482.22;;;4.96;59.98
60087;BME280;45960;53.630;55.972;2023-05-11T00:46:49;100480.34;;;4.98;59.79
60087;BME280;45960;53.630;55.972;2023-05-11T00:47:50;100482.09;;;4.99;59.74
60087;BME280;45960;53.630;55.972;2023-05-11T00:48:52;100464.00;;;4.87;59.76
60087;BME280;45960;53.630;55.972;2023-05-11T00:49:53;100478.63;;;4.97;59.72
60087;BME280;45960;53.630;55.972;2023-05-11T00:50:55;100465.75;;;4.88;59.90
60087;BME280;45960;53.630;55.972;2023-05-11T00:51:56;100485.63;;;4.98;59.96
60087;BME280;45960;53.630;55.972;2023-05-11T00:52:58;100471.63;;;4.96;59.92
60087;BME280;45960;53.630;55.972;2023-05-11T00:53:59;100482.13;;;4.98;60.01
60087;BME280;45960;53.630;55.972;2023-05-11T00:55:02;100486.53;;;4.99;59.97
60087;BME280;45960;53.630;55.972;2023-05-11T00:56:03;100489.09;;;5.00;60.01
60087;BME280;45960;53.630;55.972;2023-05-11T00:57:04;100484.66;;;5.01;59.85
60087;BME280;45960;53.630;55.972;2023-05-11T00:58:06;100485.50;;;5.01;59.86
60087;BME280;45960;53.630;55.972;2023-05-11T00:59:07;100484.63;;;5.02;59.98
60087;BME280;45960;53.630;55.972;2023-05-11T01:00:09;100481.09;;;5.02;60.08
60087;BME280;45960;53.630;55.972;2023-05-11T01:01:11;100476.66;;;5.02;59.99
60087;BME280;45960;53.630;55.972;2023-05-11T01:02:13;100477.53;;;5.03;60.00
60087;BME280;45960;53.630;55.972;2023-05-11T01:03:15;100472.22;;;5.03;60.07
60087;BME280;45960;53.630;55.972;2023-05-11T01:04:17;100486.31;;;5.03;59.92
60087;BME280;45960;53.630;55.972;2023-05-11T01:05:18;100483.81;;;5.00;59.98
60087;BME280;45960;53.630;55.972;2023-05-11T01:06:53;100480.22;;;5.01;59.90
60087;BME280;45960;53.630;55.972;2023-05-11T01:08:04;100460.69;;;4.82;60.12
60087;BME280;45960;53.630;55.972;2023-05-11T01:10:33;100480.59;;;4.92;59.86
60087;BME280;45960;53.630;55.972;2023-05-11T01:11:50;100485.88;;;4.92;59.86
60087;BME280;45960;53.630;55.972;2023-05-11T01:15:45;100480.59;;;4.92;59.80
60087;BME280;45960;53.630;55.972;2023-05-11T01:16:54;100480.59;;;4.92;59.67
60087;BME280;45960;53.630;55.972;2023-05-11T01:18:25;100485.75;;;4.95;60.10
60087;BME280;45960;53.630;55.972;2023-05-11T01:19:47;100482.31;;;4.93;59.90
60087;BME280;45960;53.630;55.972;2023-05-11T01:20:55;100481.44;;;4.92;60.01
60087;BME280;45960;53.630;55.972;2023-05-11T01:21:58;100479.56;;;4.96;60.01
60087;BME280;45960;53.630;55.972;2023-05-11T01:25:05;100476.97;;;4.94;59.88
60087;BME280;45960;53.630;55.972;2023-05-11T01:26:34;100489.22;;;4.97;60.04
60087;BME280;45960;53.630;55.972;2023-05-11T01:28:00;100490.94;;;4.98;60.08
60087;BME280;45960;53.630;55.972;2023-05-11T01:30:42;100493.69;;;4.95;60.01
60087;BME280;45960;53.630;55.972;2023-05-11T01:31:49;100490.94;;;4.98;59.93
60087;BME280;45960;53.630;55.972;2023-05-11T01:32:57;100488.16;;;5.01;59.78
60087;BME280;45960;53.630;55.972;2023-05-11T01:34:03;100492.44;;;5.05;59.82
60087;BME280;45960;53.630;55.972;2023-05-11T01:35:13;100486.16;;;5.08;60.03
60087;BME280;45960;53.630;55.972;2023-05-11T01:36:16;100483.50;;;5.08;60.21
60087;BME280;45960;53.630;55.972;2023-05-11T01:37:21;100485.06;;;5.13;60.03
60087;BME280;45960;53.630;55.972;2023-05-11T01:38:24;100493.69;;;5.19;60.19
60087;BME280;45960;53.630;55.972;2023-05-11T01:39:52;100493.81;;;5.15;60.05
60087;BME280;45960;53.630;55.972;2023-05-11T01:40:56;100502.50;;;5.19;60.13
60087;BME280;45960;53.630;55.972;2023-05-11T01:42:03;100495.28;;;5.23;60.17
60087;BME280;45960;53.630;55.972;2023-05-11T01:43:13;100500.44;;;5.26;60.41
60087;BME280;45960;53.630;55.972;2023-05-11T01:44:20;100495.97;;;5.28;60.17
60087;BME280;45960;53.630;55.972;2023-05-11T01:45:25;100495.03;;;5.29;60.14
60087;BME280;45960;53.630;55.972;2023-05-11T01:46:31;100481.13;;;5.24;60.39
60087;BME280;45960;53.630;55.972;2023-05-11T01:47:34;100494.81;;;5.35;60.15
60087;BME280;45960;53.630;55.972;2023-05-11T01:48:43;100494.56;;;5.41;60.30
60087;BME280;45960;53.630;55.972;2023-05-11T01:49:46;100491.81;;;5.43;60.04
60087;BME280;45960;53.630;55.972;2023-05-11T01:50:49;100483.16;;;5.39;59.88
60087;BME280;45960;53.630;55.972;2023-05-11T01:51:52;100492.31;;;5.52;59.99
60087;BME280;45960;53.630;55.972;2023-05-11T01:52:53;100482.50;;;5.54;60.04
60087;BME280;45960;53.630;55.972;2023-05-11T01:53:55;100490.34;;;5.57;59.89
60087;BME280;45960;53.630;55.972;2023-05-11T01:54:58;100485.66;;;5.64;59.90
60087;BME280;45960;53.630;55.972;2023-05-11T01:56:01;100488.22;;;5.66;60.01
60087;BME280;45960;53.630;55.972;2023-05-11T01:57:03;100486.25;;;5.71;59.90
60087;BME280;45960;53.630;55.972;2023-05-11T01:58:08;100485.25;;;5.73;59.86
60087;BME280;45960;53.630;55.972;2023-05-11T01:59:10;100486.09;;;5.74;59.87
60087;BME280;45960;53.630;55.972;2023-05-11T02:00:15;100488.59;;;5.78;60.06
60087;BME280;45960;53.630;55.972;2023-05-11T02:01:17;100485.75;;;5.83;60.03
60087;BME280;45960;53.630;55.972;2023-05-11T02:02:19;100486.59;;;5.83;59.69
60087;BME280;45960;53.630;55.972;2023-05-11T02:03:21;100495.22;;;5.89;59.91
60087;BME280;45960;53.630;55.972;2023-05-11T02:04:23;100488.94;;;5.91;59.74
60087;BME280;45960;53.630;55.972;2023-05-11T02:05:26;100492.41;;;5.93;59.72
60087;BME280;45960;53.630;55.972;2023-05-11T02:06:30;100490.69;;;5.91;59.69
60087;BME280;45960;53.630;55.972;2023-05-11T02:07:34;100482.88;;;5.88;59.73
60087;BME280;45960;53.630;55.972;2023-05-11T02:08:37;100495.97;;;5.92;59.51
60087;BME280;45960;53.630;55.972;2023-05-11T02:09:39;100487.47;;;5.84;59.54
60087;BME280;45960;53.630;55.972;2023-05-11T02:10:42;100493.16;;;5.97;59.45
60087;BME280;45960;53.630;55.972;2023-05-11T02:11:46;100495.59;;;6.01;59.48
60087;BME280;45960;53.630;55.972;2023-05-11T02:12:52;100490.16;;;6.04;59.61
60087;BME280;45960;53.630;55.972;2023-05-11T02:13:57;100495.22;;;6.11;59.25
60087;BME280;45960;53.630;55.972;2023-05-11T02:15:00;100490.63;;;6.14;59.26
60087;BME280;45960;53.630;55.972;2023-05-11T02:16:05;100472.25;;;6.10;59.07
60087;BME280;45960;53.630;55.972;2023-05-11T02:17:07;100493.94;;;6.19;59.26
60087;BME280;45960;53.630;55.972;2023-05-11T02:18:13;100493.81;;;6.22;59.03
60087;BME280;45960;53.630;55.972;2023-05-11T02:19:16;100485.75;;;6.24;59.10
60087;BME280;45960;53.630;55.972;2023-05-11T02:20:18;100497.84;;;6.31;58.61
60087;BME280;45960;53.630;55.972;2023-05-11T02:21:21;100493.19;;;6.36;59.13
60087;BME280;45960;53.630;55.972;2023-05-11T02:22:23;100490.41;;;6.39;58.88
60087;BME280;45960;53.630;55.972;2023-05-11T02:23:26;100486.81;;;6.40;58.77
60087;BME280;45960;53.630;55.972;2023-05-11T02:24:29;100491.84;;;6.46;58.98
60087;BME280;45960;53.630;55.972;2023-05-11T02:25:31;100484.69;;;6.48;58.56
60087;BME280;45960;53.630;55.972;2023-05-11T02:26:33;100483.63;;;6.53;58.55
60087;BME280;45960;53.630;55.972;2023-05-11T02:27:35;100489.56;;;6.58;58.74
60087;BME280;45960;53.630;55.972;2023-05-11T02:28:36;100481.44;;;6.61;58.53
60087;BME280;45960;53.630;55.972;2023-05-11T02:29:38;100487.28;;;6.69;58.62
60087;BME280;45960;53.630;55.972;2023-05-11T02:30:44;100488.88;;;6.73;58.39
60087;BME280;45960;53.630;55.972;2023-05-11T02:31:48;100489.59;;;6.77;58.47
60087;BME280;45960;53.630;55.972;2023-05-11T02:32:54;100492.81;;;6.83;58.40
60087;BME280;45960;53.630;55.972;2023-05-11T02:34:05;100495.25;;;6.88;58.46
60087;BME280;45960;53.630;55.972;2023-05-11T02:35:16;100497.88;;;6.89;58.42
60087;BME280;45960;53.630;55.972;2023-05-11T02:36:21;100496.78;;;6.93;58.24
60087;BME280;45960;53.630;55.972;2023-05-11T02:37:24;100491.16;;;7.00;58.16
60087;BME280;45960;53.630;55.972;2023-05-11T02:38:32;100491.03;;;7.03;58.21
60087;BME280;45960;53.630;55.972;2023-05-11T02:39:35;100496.06;;;7.09;58.00
60087;BME280;45960;53.630;55.972;2023-05-11T02:40:49;100493.25;;;7.12;57.81
60087;BME280;45960;53.630;55.972;2023-05-11T02:41:55;100487.81;;;7.15;58.05
60087;BME280;45960;53.630;55.972;2023-05-11T02:43:10;100490.16;;;7.21;57.87
60087;BME280;45960;53.630;55.972;2023-05-11T02:44:16;100489.16;;;7.24;57.96
60087;BME280;45960;53.630;55.972;2023-05-11T02:45:21;100496.75;;;7.31;57.93
60087;BME280;45960;53.630;55.972;2023-05-11T02:46:28;100492.06;;;7.36;57.80
60087;BME280;45960;53.630;55.972;2023-05-11T02:47:38;100488.25;;;7.42;57.65
60087;BME280;45960;53.630;55.972;2023-05-11T02:48:44;100494.28;;;7.46;57.44
60087;BME280;45960;53.630;55.972;2023-05-11T02:49:49;100496.56;;;7.53;57.63
60087;BME280;45960;53.630;55.972;2023-05-11T02:50:55;100493.69;;;7.58;57.62
60087;BME280;45960;53.630;55.972;2023-05-11T02:52:02;100498.69;;;7.64;57.38
60087;BME280;45960;53.630;55.972;2023-05-11T02:53:13;100496.66;;;7.69;57.28
60087;BME280;45960;53.630;55.972;2023-05-11T02:54:17;100475.72;;;7.63;57.50
60087;BME280;45960;53.630;55.972;2023-05-11T02:55:23;100497.94;;;7.79;57.45
60087;BME280;45960;53.630;55.972;2023-05-11T02:56:26;100489.00;;;7.80;57.04
60087;BME280;45960;53.630;55.972;2023-05-11T02:57:28;100493.00;;;7.89;56.99
60087;BME280;45960;53.630;55.972;2023-05-11T02:58:34;100494.59;;;7.93;56.80
60087;BME280;45960;53.630;55.972;2023-05-11T02:59:49;100489.97;;;7.97;56.74
60087;BME280;45960;53.630;55.972;2023-05-11T03:00:52;100492.31;;;8.03;56.63
60087;BME280;45960;53.630;55.972;2023-05-11T03:01:53;100493.78;;;8.08;56.38
60087;BME280;45960;53.630;55.972;2023-05-11T03:02:55;100482.44;;;8.05;56.19
60087;BME280;45960;53.630;55.972;2023-05-11T03:03:56;100503.81;;;8.21;56.25
60087;BME280;45960;53.630;55.972;2023-05-11T03:05:00;100497.31;;;8.26;56.19
60087;BME280;45960;53.630;55.972;2023-05-11T03:06:03;100510.28;;;8.33;56.19
60087;BME280;45960;53.630;55.972;2023-05-11T03:07:05;100497.78;;;8.35;56.24
60087;BME280;45960;53.630;55.972;2023-05-11T03:08:06;100509.06;;;8.40;56.24
60087;BME280;45960;53.630;55.972;2023-05-11T03:09:08;100505.31;;;8.44;55.99
60087;BME280;45960;53.630;55.972;2023-05-11T03:10:13;100502.69;;;8.42;56.08
60087;BME280;45960;53.630;55.972;2023-05-11T03:11:17;100504.19;;;8.48;55.88
60087;BME280;45960;53.630;55.972;2023-05-11T03:12:21;100501.53;;;8.48;55.80
60087;BME280;45960;53.630;55.972;2023-05-11T03:13:23;100511.53;;;8.60;55.79
60087;BME280;45960;53.630;55.972;2023-05-11T03:14:29;100508.59;;;8.65;55.63
60087;BME280;45960;53.630;55.972;2023-05-11T03:15:32;100512.59;;;8.73;55.60
60087;BME280;45960;53.630;55.972;2023-05-11T03:16:36;100501.94;;;8.73;55.26
60087;BME280;45960;53.630;55.972;2023-05-11T03:17:40;100497.03;;;8.82;55.45
60087;BME280;45960;53.630;55.972;2023-05-11T03:18:46;100516.75;;;8.95;54.89
60087;BME280;45960;53.630;55.972;2023-05-11T03:19:51;100512.81;;;9.02;54.81
60087;BME280;45960;53.630;55.972;2023-05-11T03:20:53;100503.69;;;9.06;54.69
60087;BME280;45960;53.630;55.972;2023-05-11T03:21:56;100507.81;;;9.12;54.62
60087;BME280;45960;53.630;55.972;2023-05-11T03:22:59;100508.50;;;9.15;54.79
60087;BME280;45960;53.630;55.972;2023-05-11T03:24:03;100492.06;;;9.07;54.52
60087;BME280;45960;53.630;55.972;2023-05-11T03:25:06;100494.44;;;9.13;54.58
60087;BME280;45960;53.630;55.972;2023-05-11T03:26:15;100507.84;;;9.28;54.50
60087;BME280;45960;53.630;55.972;2023-05-11T03:27:17;100483.41;;;9.19;54.42
60087;BME280;45960;53.630;55.972;2023-05-11T03:28:20;100510.59;;;9.42;54.39
60087;BME280;45960;53.630;55.972;2023-05-11T03:29:32;100512.13;;;9.46;54.26
60087;BME280;45960;53.630;55.972;2023-05-11T03:30:36;100518.66;;;9.56;54.00
60087;BME280;45960;53.630;55.972;2023-05-11T03:31:37;100521.94;;;9.61;53.93
60087;BME280;45960;53.630;55.972;2023-05-11T03:32:38;100514.34;;;9.70;53.50
60087;BME280;45960;53.630;55.972;2023-05-11T03:33:40;100524.66;;;9.76;53.58
60087;BME280;45960;53.630;55.972;2023-05-11T03:34:42;100516.47;;;9.79;53.19
60087;BME280;45960;53.630;55.972;2023-05-11T03:35:48;100524.97;;;9.85;53.15
60087;BME280;45960;53.630;55.972;2023-05-11T03:36:53;100525.66;;;9.89;53.32
60087;BME280;45960;53.630;55.972;2023-05-11T03:37:56;100519.97;;;9.95;53.04
60087;BME280;45960;53.630;55.972;2023-05-11T03:39:00;100516.34;;;9.96;52.91
60087;BME280;45960;53.630;55.972;2023-05-11T03:40:08;100517.53;;;10.06;52.91
60087;BME280;45960;53.630;55.972;2023-05-11T03:41:20;100508.56;;;10.07;53.04
60087;BME280;45960;53.630;55.972;2023-05-11T03:42:25;100511.63;;;10.16;53.13
60087;BME280;45960;53.630;55.972;2023-05-11T03:43:29;100512.72;;;10.27;53.00
60087;BME280;45960;53.630;55.972;2023-05-11T03:44:32;100502.94;;;10.28;52.82
60087;BME280;45960;53.630;55.972;2023-05-11T03:45:35;100521.47;;;10.45;53.05
60087;BME280;45960;53.630;55.972;2023-05-11T03:46:40;100518.22;;;10.55;52.87
60087;BME280;45960;53.630;55.972;2023-05-11T03:47:44;100521.34;;;10.61;52.64
60087;BME280;45960;53.630;55.972;2023-05-11T03:48:47;100519.19;;;10.68;52.46
60087;BME280;45960;53.630;55.972;2023-05-11T03:49:54;100510.00;;;10.72;52.59
60087;BME280;45960;53.630;55.972;2023-05-11T03:50:55;100511.25;;;10.81;52.25
60087;BME280;45960;53.630;55.972;2023-05-11T03:51:57;100512.47;;;10.89;51.93
60087;BME280;45960;53.630;55.972;2023-05-11T03:53:00;100512.84;;;10.97;51.94
60087;BME280;45960;53.630;55.972;2023-05-11T03:54:04;100501.03;;;11.02;51.66
60087;BME280;45960;53.630;55.972;2023-05-11T03:55:06;100510.19;;;11.12;51.70
60087;BME280;45960;53.630;55.972;2023-05-11T03:56:07;100495.09;;;11.11;51.45
60087;BME280;45960;53.630;55.972;2023-05-11T03:57:09;100521.31;;;11.33;51.42
60087;BME280;45960;53.630;55.972;2023-05-11T03:58:11;100524.44;;;11.39;51.35
60087;BME280;45960;53.630;55.972;2023-05-11T03:59:15;100522.97;;;11.48;51.07
60087;BME280;45960;53.630;55.972;2023-05-11T04:00:18;100517.34;;;11.53;50.87
60087;BME280;45960;53.630;55.972;2023-05-11T04:01:20;100514.06;;;11.62;50.60
60087;BME280;45960;53.630;55.972;2023-05-11T04:02:22;100519.75;;;11.70;50.57
60087;BME280;45960;53.630;55.972;2023-05-11T04:03:24;100509.41;;;11.78;50.52
60087;BME280;45960;53.630;55.972;2023-05-11T04:04:29;100512.25;;;11.90;50.54
60087;BME280;45960;53.630;55.972;2023-05-11T04:05:32;100484.00;;;11.85;50.56
60087;BME280;45960;53.630;55.972;2023-05-11T04:06:36;100504.16;;;12.04;50.55
60087;BME280;45960;53.630;55.972;2023-05-11T04:07:48;100499.13;;;12.12;50.40
60087;BME280;45960;53.630;55.972;2023-05-11T04:08:50;100496.78;;;12.20;50.20
60087;BME280;45960;53.630;55.972;2023-05-11T04:09:51;100494.44;;;12.28;49.89
60087;BME280;45960;53.630;55.972;2023-05-11T04:10:52;100497.44;;;12.37;49.72
60087;BME280;45960;53.630;55.972;2023-05-11T04:11:53;100500.47;;;12.45;50.13
60087;BME280;45960;53.630;55.972;2023-05-11T04:12:55;100492.53;;;12.56;49.97
60087;BME280;45960;53.630;55.972;2023-05-11T04:13:56;100496.28;;;12.66;49.94
60087;BME280;45960;53.630;55.972;2023-05-11T04:14:58;100493.16;;;12.72;49.81
60087;BME280;45960;53.630;55.972;2023-05-11T04:15:59;100495.19;;;12.82;49.34
60087;BME280;45960;53.630;55.972;2023-05-11T04:17:00;100488.44;;;12.89;48.96
60087;BME280;45960;53.630;55.972;2023-05-11T04:18:01;100487.75;;;12.98;48.92
60087;BME280;45960;53.630;55.972;2023-05-11T04:19:04;100487.09;;;13.07;48.93
60087;BME280;45960;53.630;55.972;2023-05-11T04:20:06;100490.31;;;13.12;48.73
60087;BME280;45960;53.630;55.972;2023-05-11T04:21:08;100481.81;;;13.18;48.24
60087;BME280;45960;53.630;55.972;2023-05-11T04:22:09;100473.53;;;13.21;48.48
60087;BME280;45960;53.630;55.972;2023-05-11T04:23:11;100479.00;;;13.33;48.24
60087;BME280;45960;53.630;55.972;2023-05-11T04:24:13;100475.88;;;13.39;48.16
60087;BME280;45960;53.630;55.972;2023-05-11T04:25:14;100469.81;;;13.48;48.17
60087;BME280;45960;53.630;55.972;2023-05-11T04:26:15;100477.31;;;13.56;47.63
60087;BME280;45960;53.630;55.972;2023-05-11T04:27:17;100472.34;;;13.62;47.60
60087;BME280;45960;53.630;55.972;2023-05-11T04:28:19;100477.22;;;13.69;47.27
60087;BME280;45960;53.630;55.972;2023-05-11T04:29:20;100471.41;;;13.75;47.32
60087;BME280;45960;53.630;55.972;2023-05-11T04:30:21;100468.28;;;13.81;47.04
60087;BME280;45960;53.630;55.972;2023-05-11T04:31:22;100464.25;;;13.86;46.93
60087;BME280;45960;53.630;55.972;2023-05-11T04:32:24;100470.00;;;13.93;46.55
60087;BME280;45960;53.630;55.972;2023-05-11T04:33:25;100472.00;;;14.02;46.26
60087;BME280;45960;53.630;55.972;2023-05-11T04:34:27;100468.81;;;14.08;45.89
60087;BME280;45960;53.630;55.972;2023-05-11T04:35:29;100460.41;;;14.13;45.33
60087;BME280;45960;53.630;55.972;2023-05-11T04:36:30;100459.59;;;14.24;45.20
60087;BME280;45960;53.630;55.972;2023-05-11T04:37:31;100465.47;;;14.29;44.66
60087;BME280;45960;53.630;55.972;2023-05-11T04:38:32;100463.28;;;14.34;44.67
60087;BME280;45960;53.630;55.972;2023-05-11T04:39:33;100463.91;;;14.38;44.39
60087;BME280;45960;53.630;55.972;2023-05-11T04:40:35;100462.56;;;14.43;43.91
60087;BME280;45960;53.630;55.972;2023-05-11T04:41:36;100454.00;;;14.49;43.84
60087;BME280;45960;53.630;55.972;2023-05-11T04:42:37;100456.25;;;14.55;43.76
60087;BME280;45960;53.630;55.972;2023-05-11T04:43:40;100460.03;;;14.64;43.34
60087;BME280;45960;53.630;55.972;2023-05-11T04:44:43;100460.41;;;14.71;43.42
60087;BME280;45960;53.630;55.972;2023-05-11T04:45:48;100469.56;;;14.80;42.98
60087;BME280;45960;53.630;55.972;2023-05-11T04:46:55;100472.63;;;14.86;42.91
60087;BME280;45960;53.630;55.972;2023-05-11T04:47:57;100445.47;;;14.78;42.38
60087;BME280;45960;53.630;55.972;2023-05-11T04:48:59;100475.78;;;15.03;42.31
60087;BME280;45960;53.630;55.972;2023-05-11T04:50:01;100471.63;;;15.10;42.23
60087;BME280;45960;53.630;55.972;2023-05-11T04:51:05;100469.19;;;15.18;41.91
60087;BME280;45960;53.630;55.972;2023-05-11T04:52:07;100470.38;;;15.25;41.92
60087;BME280;45960;53.630;55.972;2023-05-11T04:53:09;100476.84;;;15.34;41.66
60087;BME280;45960;53.630;55.972;2023-05-11T04:54:10;100469.13;;;15.40;41.19
60087;BME280;45960;53.630;55.972;2023-05-11T04:55:11;100461.75;;;15.42;40.98
60087;BME280;45960;53.630;55.972;2023-05-11T04:56:13;100468.69;;;15.56;40.58
60087;BME280;45960;53.630;55.972;2023-05-11T04:57:14;100469.06;;;15.63;40.40
60087;BME280;45960;53.630;55.972;2023-05-11T04:58:15;100470.28;;;15.70;40.30
60087;BME280;45960;53.630;55.972;2023-05-11T04:59:16;100460.72;;;15.77;39.70
60087;BME280;45960;53.630;55.972;2023-05-11T05:00:17;100472.41;;;15.87;38.77
60087;BME280;45960;53.630;55.972;2023-05-11T05:01:19;100473.59;;;15.95;38.69
60087;BME280;45960;53.630;55.972;2023-05-11T05:02:21;100458.59;;;16.02;38.20
60087;BME280;45960;53.630;55.972;2023-05-11T05:03:22;100472.28;;;16.10;38.03
60087;BME280;45960;53.630;55.972;2023-05-11T05:04:23;100472.50;;;16.18;37.91
60087;BME280;45960;53.630;55.972;2023-05-11T05:05:24;100466.13;;;16.19;37.63
60087;BME280;45960;53.630;55.972;2023-05-11T05:06:26;100452.84;;;16.27;37.29
60087;BME280;45960;53.630;55.972;2023-05-11T05:07:27;100463.69;;;16.37;37.25
60087;BME280;45960;53.630;55.972;2023-05-11T05:08:30;100457.16;;;16.40;37.20
60087;BME280;45960;53.630;55.972;2023-05-11T05:09:31;100465.91;;;16.53;37.08
60087;BME280;45960;53.630;55.972;2023-05-11T05:10:32;100460.97;;;16.58;36.91
60087;BME280;45960;53.630;55.972;2023-05-11T05:11:33;100458.00;;;16.61;36.96
60087;BME280;45960;53.630;55.972;2023-05-11T05:12:35;100430.69;;;16.54;37.09
60087;BME280;45960;53.630;55.972;2023-05-11T05:13:36;100451.25;;;16.76;36.84
60087;BME280;45960;53.630;55.972;2023-05-11T05:14:38;100460.00;;;16.90;36.89
60087;BME280;45960;53.630;55.972;2023-05-11T05:15:39;100455.16;;;16.93;36.77
60087;BME280;45960;53.630;55.972;2023-05-11T05:16:40;100468.84;;;17.02;36.67
60087;BME280;45960;53.630;55.972;2023-05-11T05:17:42;100469.13;;;17.08;36.23
60087;BME280;45960;53.630;55.972;2023-05-11T05:18:43;100466.59;;;17.16;35.79
60087;BME280;45960;53.630;55.972;2023-05-11T05:19:44;100468.31;;;17.17;35.46
60087;BME280;45960;53.630;55.972;2023-05-11T05:20:47;100457.53;;;17.17;35.26
60087;BME280;45960;53.630;55.972;2023-05-11T05:21:48;100458.94;;;17.21;35.60
60087;BME280;45960;53.630;55.972;2023-05-11T05:22:49;100471.03;;;17.27;35.81
60087;BME280;45960;53.630;55.972;2023-05-11T05:23:50;100466.66;;;17.36;35.58
60087;BME280;45960;53.630;55.972;2023-05-11T05:24:51;100462.41;;;17.43;35.57
60087;BME280;45960;53.630;55.972;2023-05-11T05:25:52;100461.56;;;17.52;35.11
60087;BME280;45960;53.630;55.972;2023-05-11T05:26:53;100465.84;;;17.64;35.35
60087;BME280;45960;53.630;55.972;2023-05-11T05:27:55;100463.84;;;17.66;35.22
60087;BME280;45960;53.630;55.972;2023-05-11T05:28:56;100454.47;;;17.71;35.07
60087;BME280;45960;53.630;55.972;2023-05-11T05:29:57;100463.59;;;17.89;35.37
60087;BME280;45960;53.630;55.972;2023-05-11T05:30:59;100466.44;;;17.97;35.38
60087;BME280;45960;53.630;55.972;2023-05-11T05:32:01;100462.31;;;18.03;35.47
60087;BME280;45960;53.630;55.972;2023-05-11T05:33:03;100466.41;;;18.17;35.19
60087;BME280;45960;53.630;55.972;2023-05-11T05:34:05;100477.06;;;18.28;35.00
60087;BME280;45960;53.630;55.972;2023-05-11T05:35:07;100458.13;;;18.28;34.84
60087;BME280;45960;53.630;55.972;2023-05-11T05:36:08;100475.75;;;18.42;34.51
60087;BME280;45960;53.630;55.972;2023-05-11T05:37:09;100479.75;;;18.47;34.36
60087;BME280;45960;53.630;55.972;2023-05-11T05:38:10;100475.47;;;18.54;34.38